sensor_id;sensor_type;location;lat;lon;timestamp;pressure;altitude;pressure_sealevel;temperature;humidity
33506;BME280;19843;51.040;13.782;2023-11-19T00:00:08;100440.78;;;5.13;93.10
33506;BME280;19843;51.040;13.782;2023-11-19T00:02:38;100442.47;;;4.95;93.38
33506;BME280;19843;51.040;13.782;2023-11-19T00:05:08;100429.78;;;5.08;93.42
33506;BME280;19843;51.040;13.782;2023-11-19T00:07:36;100412.94;;;4.91;95.26
33506;BME280;19843;51.040;13.782;2023-11-19T00:10:07;100406.38;;;4.86;93.85
33506;BME280;19843;51.040;13.782;2023-11-19T00:12:37;100382.47;;;4.77;94.52
33506;BME280;19843;51.040;13.782;2023-11-19T00:15:06;100376.50;;;4.70;94.75
33506;BME280;19843;51.040;13.782;2023-11-19T00:17:37;100373.63;;;4.61;95.33
33506;BME280;19843;51.040;13.782;2023-11-19T00:20:09;100356.22;;;4.74;94.59
33506;BME280;19843;51.040;13.782;2023-11-19T00:22:37;100359.63;;;4.71;95.73
33506;BME280;19843;51.040;13.782;2023-11-19T00:25:15;100368.91;;;4.61;95.06
33506;BME280;19843;51.040;13.782;2023-11-19T00:27:43;100370.09;;;4.55;95.78
33506;BME280;19843;51.040;13.782;2023-11-19T00:30:12;100346.25;;;4.59;95.21
33506;BME280;19843;51.040;13.782;2023-11-19T00:32:40;100329.25;;;4.52;96.03
33506;BME280;19843;51.040;13.782;2023-11-19T00:35:10;100350.69;;;4.60;95.08
33506;BME280;19843;51.040;13.782;2023-11-19T00:37:40;100335.44;;;4.77;93.46
33506;BME280;19843;51.040;13.782;2023-11-19T00:40:09;100336.19;;;4.82;92.78
33506;BME280;19843;51.040;13.782;2023-11-19T00:42:38;100327.88;;;4.82;91.53
33506;BME280;19843;51.040;13.782;2023-11-19T00:45:06;100322.94;;;4.66;93.08
33506;BME280;19843;51.040;13.782;2023-11-19T00:47:37;100320.19;;;4.66;93.29
33506;BME280;19843;51.040;13.782;2023-11-19T00:50:05;100328.84;;;4.59;93.18
33506;BME280;19843;51.040;13.782;2023-11-19T00:52:37;100318.00;;;4.62;93.57
33506;BME280;19843;51.040;13.782;2023-11-19T00:55:05;100307.44;;;4.65;93.59
33506;BME280;19843;51.040;13.782;2023-11-19T00:57:34;100306.97;;;4.76;93.17
33506;BME280;19843;51.040;13.782;2023-11-19T01:00:02;100303.78;;;4.69;93.81
33506;BME280;19843;51.040;13.782;2023-11-19T01:02:35;100286.13;;;4.65;94.30
33506;BME280;19843;51.040;13.782;2023-11-19T01:05:03;100279.34;;;4.44;96.59
33506;BME280;19843;51.040;13.782;2023-11-19T01:07:31;100281.78;;;4.45;96.02
33506;BME280;19843;51.040;13.782;2023-11-19T01:09:59;100272.47;;;4.41;96.00
33506;BME280;19843;51.040;13.782;2023-11-19T01:12:29;100258.44;;;4.70;94.23
33506;BME280;19843;51.040;13.782;2023-11-19T01:14:57;100255.41;;;4.53;95.27
33506;BME280;19843;51.040;13.782;2023-11-19T01:17:25;100237.31;;;4.74;94.06
33506;BME280;19843;51.040;13.782;2023-11-19T01:19:52;100219.72;;;4.70;93.42
33506;BME280;19843;51.040;13.782;2023-11-19T01:22:20;100227.84;;;4.48;94.96
33506;BME280;19843;51.040;13.782;2023-11-19T01:24:48;100223.16;;;4.48;94.44
33506;BME280;19843;51.040;13.782;2023-11-19T01:27:16;100220.50;;;4.57;94.29
33506;BME280;19843;51.040;13.782;2023-11-19T01:29:44;100235.25;;;4.52;94.97
33506;BME280;19843;51.040;13.782;2023-11-19T01:32:11;100211.91;;;4.72;94.08
33506;BME280;19843;51.040;13.782;2023-11-19T01:34:40;100216.19;;;4.65;93.72
33506;BME280;19843;51.040;13.782;2023-11-19T01:37:07;100208.94;;;4.69;93.38
33506;BME280;19843;51.040;13.782;2023-11-19T01:39:35;100208.13;;;4.68;93.09
33506;BME280;19843;51.040;13.782;2023-11-19T01:42:03;100206.19;;;4.82;93.26
33506;BME280;19843;51.040;13.782;2023-11-19T01:44:32;100194.59;;;4.67;92.59
33506;BME280;19843;51.040;13.782;2023-11-19T01:47:00;100182.53;;;4.76;93.44
33506;BME280;19843;51.040;13.782;2023-11-19T01:49:30;100187.13;;;4.81;92.66
33506;BME280;19843;51.040;13.782;2023-11-19T01:51:59;100174.41;;;4.94;92.31
33506;BME280;19843;51.040;13.782;2023-11-19T01:54:28;100164.88;;;5.00;92.60
33506;BME280;19843;51.040;13.782;2023-11-19T01:56:56;100163.34;;;4.94;91.46
33506;BME280;19843;51.040;13.782;2023-11-19T01:59:24;100162.63;;;5.02;92.04
33506;BME280;19843;51.040;13.782;2023-11-19T02:01:55;100160.28;;;5.09;91.01
33506;BME280;19843;51.040;13.782;2023-11-19T02:04:27;100141.06;;;5.12;90.25
33506;BME280;19843;51.040;13.782;2023-11-19T02:06:57;100134.03;;;4.93;92.22
33506;BME280;19843;51.040;13.782;2023-11-19T02:09:25;100119.13;;;5.16;90.69
33506;BME280;19843;51.040;13.782;2023-11-19T02:11:53;100114.78;;;5.01;92.00
33506;BME280;19843;51.040;13.782;2023-11-19T02:14:25;100112.31;;;5.00;91.90
33506;BME280;19843;51.040;13.782;2023-11-19T02:16:54;100117.31;;;5.11;91.56
33506;BME280;19843;51.040;13.782;2023-11-19T02:19:22;100123.00;;;5.29;91.14
33506;BME280;19843;51.040;13.782;2023-11-19T02:21:49;100113.31;;;5.18;92.23
33506;BME280;19843;51.040;13.782;2023-11-19T02:24:21;100093.63;;;5.19;92.59
33506;BME280;19843;51.040;13.782;2023-11-19T02:26:59;100083.28;;;5.11;93.84
33506;BME280;19843;51.040;13.782;2023-11-19T02:29:33;100065.25;;;5.13;94.09
33506;BME280;19843;51.040;13.782;2023-11-19T02:32:01;100058.41;;;5.33;93.84
33506;BME280;19843;51.040;13.782;2023-11-19T02:34:29;100059.53;;;5.32;92.69
33506;BME280;19843;51.040;13.782;2023-11-19T02:36:57;100057.72;;;5.28;92.39
33506;BME280;19843;51.040;13.782;2023-11-19T02:39:25;100052.66;;;5.30;93.04
33506;BME280;19843;51.040;13.782;2023-11-19T02:41:52;100033.34;;;5.16;93.49
33506;BME280;19843;51.040;13.782;2023-11-19T02:44:20;100034.63;;;5.32;92.67
33506;BME280;19843;51.040;13.782;2023-11-19T02:46:50;100035.69;;;5.45;91.54
33506;BME280;19843;51.040;13.782;2023-11-19T02:49:17;100032.00;;;5.27;91.52
33506;BME280;19843;51.040;13.782;2023-11-19T02:51:45;100017.81;;;5.51;90.30
33506;BME280;19843;51.040;13.782;2023-11-19T02:54:13;100016.13;;;5.42;91.41
33506;BME280;19843;51.040;13.782;2023-11-19T02:56:42;100022.72;;;5.54;90.14
33506;BME280;19843;51.040;13.782;2023-11-19T02:59:09;100020.31;;;5.61;88.91
33506;BME280;19843;51.040;13.782;2023-11-19T03:01:54;99988.66;;;5.54;89.73
33506;BME280;19843;51.040;13.782;2023-11-19T03:04:22;99990.22;;;5.37;90.36
33506;BME280;19843;51.040;13.782;2023-11-19T03:06:50;99990.81;;;5.57;90.18
33506;BME280;19843;51.040;13.782;2023-11-19T03:09:19;99986.66;;;5.46;89.67
33506;BME280;19843;51.040;13.782;2023-11-19T03:11:47;99968.28;;;5.50;89.02
33506;BME280;19843;51.040;13.782;2023-11-19T03:14:14;99963.69;;;5.45;89.14
33506;BME280;19843;51.040;13.782;2023-11-19T03:16:44;99967.25;;;5.37;89.52
33506;BME280;19843;51.040;13.782;2023-11-19T03:19:14;99949.91;;;5.54;88.94
33506;BME280;19843;51.040;13.782;2023-11-19T03:21:51;99953.13;;;5.47;89.85
33506;BME280;19843;51.040;13.782;2023-11-19T03:24:18;99952.25;;;5.69;88.12
33506;BME280;19843;51.040;13.782;2023-11-19T03:26:48;99950.84;;;5.49;89.57
33506;BME280;19843;51.040;13.782;2023-11-19T03:29:16;99935.16;;;5.67;87.71
33506;BME280;19843;51.040;13.782;2023-11-19T03:31:44;99928.75;;;5.58;87.59
33506;BME280;19843;51.040;13.782;2023-11-19T03:34:11;99937.00;;;5.49;87.77
33506;BME280;19843;51.040;13.782;2023-11-19T03:36:40;99936.44;;;5.70;88.36
33506;BME280;19843;51.040;13.782;2023-11-19T03:39:08;99936.44;;;5.70;87.94
33506;BME280;19843;51.040;13.782;2023-11-19T03:41:36;99922.06;;;5.59;87.55
33506;BME280;19843;51.040;13.782;2023-11-19T03:44:06;99915.28;;;5.74;87.76
33506;BME280;19843;51.040;13.782;2023-11-19T03:46:34;99913.31;;;5.74;87.38
33506;BME280;19843;51.040;13.782;2023-11-19T03:49:02;99907.47;;;5.67;87.45
33506;BME280;19843;51.040;13.782;2023-11-19T03:51:30;99889.09;;;5.80;86.67
33506;BME280;19843;51.040;13.782;2023-11-19T03:54:00;99895.91;;;5.65;87.03
33506;BME280;19843;51.040;13.782;2023-11-19T03:56:27;99887.88;;;5.63;89.34
33506;BME280;19843;51.040;13.782;2023-11-19T03:58:55;99879.56;;;5.63;88.81
33506;BME280;19843;51.040;13.782;2023-11-19T04:01:23;99876.34;;;5.79;88.81
33506;BME280;19843;51.040;13.782;2023-11-19T04:03:51;99873.84;;;5.51;90.08
33506;BME280;19843;51.040;13.782;2023-11-19T04:06:18;99867.34;;;5.56;90.33
33506;BME280;19843;51.040;13.782;2023-11-19T04:08:47;99864.44;;;5.70;89.80
33506;BME280;19843;51.040;13.782;2023-11-19T04:11:17;99866.22;;;5.57;90.01
33506;BME280;19843;51.040;13.782;2023-11-19T04:13:44;99869.19;;;5.78;89.98
33506;BME280;19843;51.040;13.782;2023-11-19T04:16:12;99850.09;;;5.68;89.34
33506;BME280;19843;51.040;13.782;2023-11-19T04:18:41;99844.22;;;5.52;88.97
33506;BME280;19843;51.040;13.782;2023-11-19T04:21:08;99846.19;;;5.69;89.61
33506;BME280;19843;51.040;13.782;2023-11-19T04:23:36;99851.91;;;5.72;89.56
33506;BME280;19843;51.040;13.782;2023-11-19T04:26:04;99847.97;;;5.56;89.67
33506;BME280;19843;51.040;13.782;2023-11-19T04:28:37;99839.88;;;5.77;89.45
33506;BME280;19843;51.040;13.782;2023-11-19T04:31:04;99845.91;;;5.70;89.63
33506;BME280;19843;51.040;13.782;2023-11-19T04:33:32;99847.00;;;5.69;90.85
33506;BME280;19843;51.040;13.782;2023-11-19T04:36:00;99826.16;;;5.63;90.56
33506;BME280;19843;51.040;13.782;2023-11-19T04:38:28;99827.31;;;5.71;91.21
33506;BME280;19843;51.040;13.782;2023-11-19T04:40:57;99821.72;;;5.53;93.07
33506;BME280;19843;51.040;13.782;2023-11-19T04:43:24;99822.38;;;5.59;94.71
33506;BME280;19843;51.040;13.782;2023-11-19T04:45:53;99821.50;;;5.41;97.08
33506;BME280;19843;51.040;13.782;2023-11-19T04:48:21;99820.09;;;5.52;97.51
33506;BME280;19843;51.040;13.782;2023-11-19T04:50:48;99816.16;;;5.45;98.46
33506;BME280;19843;51.040;13.782;2023-11-19T04:53:17;99813.88;;;5.38;98.46
33506;BME280;19843;51.040;13.782;2023-11-19T04:55:45;99802.63;;;5.43;99.62
33506;BME280;19843;51.040;13.782;2023-11-19T04:58:12;99794.16;;;5.39;100.00
33506;BME280;19843;51.040;13.782;2023-11-19T05:00:40;99782.91;;;5.36;100.00
33506;BME280;19843;51.040;13.782;2023-11-19T05:03:09;99792.97;;;5.23;100.00
33506;BME280;19843;51.040;13.782;2023-11-19T05:05:36;99792.41;;;5.12;100.00
33506;BME280;19843;51.040;13.782;2023-11-19T05:08:04;99793.41;;;5.17;100.00
33506;BME280;19843;51.040;13.782;2023-11-19T05:10:32;99788.06;;;5.20;100.00
33506;BME280;19843;51.040;13.782;2023-11-19T05:13:00;99778.47;;;5.26;100.00
33506;BME280;19843;51.040;13.782;2023-11-19T05:15:27;99777.63;;;5.17;100.00
33506;BME280;19843;51.040;13.782;2023-11-19T05:17:55;99780.41;;;5.17;100.00
33506;BME280;19843;51.040;13.782;2023-11-19T05:20:24;99773.38;;;5.11;100.00
33506;BME280;19843;51.040;13.782;2023-11-19T05:22:51;99776.00;;;5.16;100.00
33506;BME280;19843;51.040;13.782;2023-11-19T05:25:19;99770.97;;;5.18;100.00
33506;BME280;19843;51.040;13.782;2023-11-19T05:27:47;99765.84;;;5.03;100.00
33506;BME280;19843;51.040;13.782;2023-11-19T05:30:15;99748.41;;;4.94;100.00
33506;BME280;19843;51.040;13.782;2023-11-19T05:32:42;99749.06;;;4.91;100.00
33506;BME280;19843;51.040;13.782;2023-11-19T05:35:10;99753.50;;;5.00;100.00
33506;BME280;19843;51.040;13.782;2023-11-19T05:37:39;99728.41;;;4.97;100.00
33506;BME280;19843;51.040;13.782;2023-11-19T05:40:08;99739.91;;;4.81;100.00
33506;BME280;19843;51.040;13.782;2023-11-19T05:42:41;99742.38;;;4.92;100.00
33506;BME280;19843;51.040;13.782;2023-11-19T05:45:11;99740.25;;;4.88;100.00
33506;BME280;19843;51.040;13.782;2023-11-19T05:47:39;99745.00;;;4.97;100.00
33506;BME280;19843;51.040;13.782;2023-11-19T05:50:08;99736.78;;;5.14;100.00
33506;BME280;19843;51.040;13.782;2023-11-19T05:52:36;99725.53;;;5.10;100.00
33506;BME280;19843;51.040;13.782;2023-11-19T05:55:06;99717.97;;;4.85;100.00
33506;BME280;19843;51.040;13.782;2023-11-19T05:57:36;99726.31;;;4.62;100.00
33506;BME280;19843;51.040;13.782;2023-11-19T06:00:13;99736.72;;;4.97;100.00
33506;BME280;19843;51.040;13.782;2023-11-19T06:02:42;99727.63;;;5.05;100.00
33506;BME280;19843;51.040;13.782;2023-11-19T06:05:09;99715.09;;;4.99;100.00
33506;BME280;19843;51.040;13.782;2023-11-19T06:07:37;99717.44;;;4.83;100.00
33506;BME280;19843;51.040;13.782;2023-11-19T06:10:07;99718.31;;;4.92;100.00
33506;BME280;19843;51.040;13.782;2023-11-19T06:12:36;99709.84;;;4.97;100.00
33506;BME280;19843;51.040;13.782;2023-11-19T06:15:05;99696.00;;;4.88;100.00
33506;BME280;19843;51.040;13.782;2023-11-19T06:17:34;99692.56;;;4.83;100.00
33506;BME280;19843;51.040;13.782;2023-11-19T06:20:03;99675.56;;;5.07;100.00
33506;BME280;19843;51.040;13.782;2023-11-19T06:22:31;99674.44;;;5.17;100.00
33506;BME280;19843;51.040;13.782;2023-11-19T06:24:59;99672.59;;;4.95;100.00
33506;BME280;19843;51.040;13.782;2023-11-19T06:27:28;99660.06;;;4.97;100.00
33506;BME280;19843;51.040;13.782;2023-11-19T06:29:55;99662.25;;;5.18;100.00
33506;BME280;19843;51.040;13.782;2023-11-19T06:32:24;99640.41;;;5.07;100.00
33506;BME280;19843;51.040;13.782;2023-11-19T06:34:51;99656.22;;;5.16;100.00
33506;BME280;19843;51.040;13.782;2023-11-19T06:37:19;99646.91;;;5.11;100.00
33506;BME280;19843;51.040;13.782;2023-11-19T06:39:46;99648.69;;;4.99;100.00
33506;BME280;19843;51.040;13.782;2023-11-19T06:42:14;99662.19;;;5.00;100.00
33506;BME280;19843;51.040;13.782;2023-11-19T06:44:43;99662.38;;;5.12;100.00
33506;BME280;19843;51.040;13.782;2023-11-19T06:47:10;99661.09;;;5.19;100.00
33506;BME280;19843;51.040;13.782;2023-11-19T06:49:38;99660.28;;;5.18;100.00
33506;BME280;19843;51.040;13.782;2023-11-19T06:52:05;99655.91;;;5.34;100.00
33506;BME280;19843;51.040;13.782;2023-11-19T06:54:33;99658.50;;;5.31;100.00
33506;BME280;19843;51.040;13.782;2023-11-19T06:57:00;99662.13;;;5.49;100.00
33506;BME280;19843;51.040;13.782;2023-11-19T06:59:29;99659.34;;;5.49;100.00
33506;BME280;19843;51.040;13.782;2023-11-19T07:01:58;99644.19;;;5.63;100.00
33506;BME280;19843;51.040;13.782;2023-11-19T07:04:26;99639.13;;;5.74;100.00
33506;BME280;19843;51.040;13.782;2023-11-19T07:06:53;99645.66;;;5.70;100.00
33506;BME280;19843;51.040;13.782;2023-11-19T07:09:21;99636.88;;;5.59;100.00
33506;BME280;19843;51.040;13.782;2023-11-19T07:11:49;99636.69;;;5.73;100.00
33506;BME280;19843;51.040;13.782;2023-11-19T07:14:18;99659.19;;;5.71;100.00
33506;BME280;19843;51.040;13.782;2023-11-19T07:16:45;99665.53;;;5.54;100.00
33506;BME280;19843;51.040;13.782;2023-11-19T07:19:14;99677.44;;;5.89;100.00
33506;BME280;19843;51.040;13.782;2023-11-19T07:21:42;99658.06;;;5.72;100.00
33506;BME280;19843;51.040;13.782;2023-11-19T07:24:11;99653.66;;;5.71;100.00
33506;BME280;19843;51.040;13.782;2023-11-19T07:26:42;99678.72;;;5.57;100.00
33506;BME280;19843;51.040;13.782;2023-11-19T07:29:10;99670.09;;;5.76;100.00
33506;BME280;19843;51.040;13.782;2023-11-19T07:31:38;99670.13;;;5.94;100.00
33506;BME280;19843;51.040;13.782;2023-11-19T07:34:05;99674.19;;;5.96;100.00
33506;BME280;19843;51.040;13.782;2023-11-19T07:36:37;99673.72;;;5.94;100.00
33506;BME280;19843;51.040;13.782;2023-11-19T07:39:05;99672.56;;;6.04;100.00
33506;BME280;19843;51.040;13.782;2023-11-19T07:41:32;99663.09;;;6.13;100.00
33506;BME280;19843;51.040;13.782;2023-11-19T07:44:00;99670.25;;;6.23;100.00
33506;BME280;19843;51.040;13.782;2023-11-19T07:46:28;99677.31;;;5.95;100.00
33506;BME280;19843;51.040;13.782;2023-11-19T07:48:56;99683.59;;;6.30;100.00
33506;BME280;19843;51.040;13.782;2023-11-19T07:51:24;99680.47;;;6.31;100.00
33506;BME280;19843;51.040;13.782;2023-11-19T07:53:53;99666.41;;;6.54;100.00
33506;BME280;19843;51.040;13.782;2023-11-19T07:56:20;99671.56;;;6.64;100.00
33506;BME280;19843;51.040;13.782;2023-11-19T07:58:48;99670.75;;;6.63;100.00
33506;BME280;19843;51.040;13.782;2023-11-19T08:01:15;99660.56;;;6.47;100.00
33506;BME280;19843;51.040;13.782;2023-11-19T08:03:43;99664.59;;;6.58;100.00
33506;BME280;19843;51.040;13.782;2023-11-19T08:06:25;99682.41;;;6.39;100.00
33506;BME280;19843;51.040;13.782;2023-11-19T08:08:53;99683.66;;;6.59;100.00
33506;BME280;19843;51.040;13.782;2023-11-19T08:11:21;99670.41;;;6.74;100.00
33506;BME280;19843;51.040;13.782;2023-11-19T08:13:49;99674.25;;;6.52;100.00
33506;BME280;19843;51.040;13.782;2023-11-19T08:16:16;99679.25;;;6.67;100.00
33506;BME280;19843;51.040;13.782;2023-11-19T08:18:44;99675.34;;;6.59;100.00
33506;BME280;19843;51.040;13.782;2023-11-19T08:21:11;99660.53;;;6.93;100.00
33506;BME280;19843;51.040;13.782;2023-11-19T08:23:39;99663.38;;;7.06;100.00
33506;BME280;19843;51.040;13.782;2023-11-19T08:26:08;99655.06;;;7.06;100.00
33506;BME280;19843;51.040;13.782;2023-11-19T08:28:37;99660.28;;;7.07;100.00
33506;BME280;19843;51.040;13.782;2023-11-19T08:31:04;99653.69;;;6.91;100.00
33506;BME280;19843;51.040;13.782;2023-11-19T08:33:32;99651.44;;;6.84;100.00
33506;BME280;19843;51.040;13.782;2023-11-19T08:35:59;99643.56;;;7.16;100.00
33506;BME280;19843;51.040;13.782;2023-11-19T08:38:27;99652.47;;;7.01;100.00
33506;BME280;19843;51.040;13.782;2023-11-19T08:40:57;99643.44;;;7.12;100.00
33506;BME280;19843;51.040;13.782;2023-11-19T08:43:28;99645.69;;;7.40;100.00
33506;BME280;19843;51.040;13.782;2023-11-19T08:45:57;99653.31;;;7.52;100.00
33506;BME280;19843;51.040;13.782;2023-11-19T08:48:24;99657.59;;;7.40;100.00
33506;BME280;19843;51.040;13.782;2023-11-19T08:50:52;99641.50;;;7.34;100.00
33506;BME280;19843;51.040;13.782;2023-11-19T08:53:20;99642.81;;;7.36;100.00
33506;BME280;19843;51.040;13.782;2023-11-19T08:55:48;99641.16;;;7.77;100.00
33506;BME280;19843;51.040;13.782;2023-11-19T08:58:16;99655.19;;;7.39;100.00
33506;BME280;19843;51.040;13.782;2023-11-19T09:00:46;99656.59;;;7.45;100.00
33506;BME280;19843;51.040;13.782;2023-11-19T09:03:13;99662.91;;;7.54;100.00
33506;BME280;19843;51.040;13.782;2023-11-19T09:05:41;99675.06;;;7.70;100.00
33506;BME280;19843;51.040;13.782;2023-11-19T09:08:09;99678.25;;;7.60;100.00
33506;BME280;19843;51.040;13.782;2023-11-19T09:10:38;99682.63;;;7.61;100.00
33506;BME280;19843;51.040;13.782;2023-11-19T09:13:05;99668.53;;;7.87;100.00
33506;BME280;19843;51.040;13.782;2023-11-19T09:15:33;99666.03;;;7.74;100.00
33506;BME280;19843;51.040;13.782;2023-11-19T09:18:02;99665.06;;;7.90;100.00
33506;BME280;19843;51.040;13.782;2023-11-19T09:20:31;99647.66;;;7.81;100.00
33506;BME280;19843;51.040;13.782;2023-11-19T09:23:04;99653.59;;;8.13;100.00
33506;BME280;19843;51.040;13.782;2023-11-19T09:25:32;99666.78;;;8.37;100.00
33506;BME280;19843;51.040;13.782;2023-11-19T09:28:03;99654.72;;;8.45;100.00
33506;BME280;19843;51.040;13.782;2023-11-19T09:30:30;99670.28;;;8.25;100.00
33506;BME280;19843;51.040;13.782;2023-11-19T09:33:02;99673.63;;;8.18;100.00
33506;BME280;19843;51.040;13.782;2023-11-19T09:35:29;99673.47;;;8.03;100.00
33506;BME280;19843;51.040;13.782;2023-11-19T09:37:57;99666.63;;;8.33;100.00
33506;BME280;19843;51.040;13.782;2023-11-19T09:40:26;99663.22;;;8.61;100.00
33506;BME280;19843;51.040;13.782;2023-11-19T09:42:55;99656.28;;;8.67;100.00
33506;BME280;19843;51.040;13.782;2023-11-19T09:45:27;99658.38;;;8.82;100.00
33506;BME280;19843;51.040;13.782;2023-11-19T09:47:55;99659.78;;;8.88;100.00
33506;BME280;19843;51.040;13.782;2023-11-19T09:50:25;99675.66;;;9.00;100.00
33506;BME280;19843;51.040;13.782;2023-11-19T09:52:53;99669.41;;;9.03;100.00
33506;BME280;19843;51.040;13.782;2023-11-19T09:55:21;99660.03;;;9.08;100.00
33506;BME280;19843;51.040;13.782;2023-11-19T09:57:49;99652.44;;;9.20;100.00
33506;BME280;19843;51.040;13.782;2023-11-19T10:00:19;99641.44;;;9.24;100.00
33506;BME280;19843;51.040;13.782;2023-11-19T10:02:48;99654.53;;;9.23;100.00
33506;BME280;19843;51.040;13.782;2023-11-19T10:05:17;99640.69;;;9.39;100.00
33506;BME280;19843;51.040;13.782;2023-11-19T10:07:48;99639.28;;;9.58;100.00
33506;BME280;19843;51.040;13.782;2023-11-19T10:10:16;99626.41;;;10.09;100.00
33506;BME280;19843;51.040;13.782;2023-11-19T10:12:45;99637.38;;;10.30;100.00
33506;BME280;19843;51.040;13.782;2023-11-19T10:15:20;99636.59;;;10.45;100.00
33506;BME280;19843;51.040;13.782;2023-11-19T10:17:48;99636.22;;;10.47;100.00
33506;BME280;19843;51.040;13.782;2023-11-19T10:20:16;99632.03;;;10.69;100.00
33506;BME280;19843;51.040;13.782;2023-11-19T10:22:44;99622.38;;;10.82;100.00
33506;BME280;19843;51.040;13.782;2023-11-19T10:25:24;99631.72;;;10.90;100.00
33506;BME280;19843;51.040;13.782;2023-11-19T10:27:53;99625.41;;;11.09;100.00
33506;BME280;19843;51.040;13.782;2023-11-19T10:30:21;99632.41;;;11.18;100.00
33506;BME280;19843;51.040;13.782;2023-11-19T10:33:03;99635.06;;;11.11;100.00
33506;BME280;19843;51.040;13.782;2023-11-19T10:35:31;99623.13;;;11.30;100.00
33506;BME280;19843;51.040;13.782;2023-11-19T10:38:00;99613.03;;;11.25;100.00
33506;BME280;19843;51.040;13.782;2023-11-19T10:40:41;99623.13;;;11.30;100.00
33506;BME280;19843;51.040;13.782;2023-11-19T10:43:09;99616.28;;;11.27;100.00
33506;BME280;19843;51.040;13.782;2023-11-19T10:45:37;99622.88;;;11.54;99.24
33506;BME280;19843;51.040;13.782;2023-11-19T10:48:06;99609.91;;;11.46;100.00
33506;BME280;19843;51.040;13.782;2023-11-19T10:50:34;99608.03;;;11.89;97.90
33506;BME280;19843;51.040;13.782;2023-11-19T10:53:03;99597.41;;;12.18;95.32
33506;BME280;19843;51.040;13.782;2023-11-19T10:55:33;99595.13;;;11.65;97.51
33506;BME280;19843;51.040;13.782;2023-11-19T10:58:05;99598.66;;;11.82;96.62
33506;BME280;19843;51.040;13.782;2023-11-19T11:00:38;99621.91;;;11.82;97.08
33506;BME280;19843;51.040;13.782;2023-11-19T11:03:10;99620.31;;;12.04;96.68
33506;BME280;19843;51.040;13.782;2023-11-19T11:05:38;99621.41;;;11.80;96.53
33506;BME280;19843;51.040;13.782;2023-11-19T11:08:06;99615.03;;;11.99;96.33
33506;BME280;19843;51.040;13.782;2023-11-19T11:10:39;99607.91;;;12.01;94.73
33506;BME280;19843;51.040;13.782;2023-11-19T11:13:25;99610.16;;;11.96;95.72
33506;BME280;19843;51.040;13.782;2023-11-19T11:15:56;99605.00;;;11.78;97.83
33506;BME280;19843;51.040;13.782;2023-11-19T11:18:25;99604.75;;;11.84;98.17
33506;BME280;19843;51.040;13.782;2023-11-19T11:20:56;99598.13;;;12.15;96.00
33506;BME280;19843;51.040;13.782;2023-11-19T11:23:42;99597.63;;;12.09;95.94
33506;BME280;19843;51.040;13.782;2023-11-19T11:26:27;99602.50;;;12.12;94.74
33506;BME280;19843;51.040;13.782;2023-11-19T11:29:05;99614.13;;;12.14;94.05
33506;BME280;19843;51.040;13.782;2023-11-19T11:31:40;99608.25;;;12.00;95.23
33506;BME280;19843;51.040;13.782;2023-11-19T11:34:38;99614.06;;;12.11;92.70
33506;BME280;19843;51.040;13.782;2023-11-19T11:37:17;99624.38;;;12.07;93.56
33506;BME280;19843;51.040;13.782;2023-11-19T11:39:46;99619.44;;;12.00;92.38
33506;BME280;19843;51.040;13.782;2023-11-19T11:42:31;99603.63;;;12.08;93.37
33506;BME280;19843;51.040;13.782;2023-11-19T11:45:00;99609.59;;;12.06;90.58
33506;BME280;19843;51.040;13.782;2023-11-19T11:48:08;99592.72;;;12.02;90.89
33506;BME280;19843;51.040;13.782;2023-11-19T11:50:54;99607.97;;;11.86;92.34
33506;BME280;19843;51.040;13.782;2023-11-19T11:53:23;99613.13;;;11.84;91.22
33506;BME280;19843;51.040;13.782;2023-11-19T11:55:58;99613.47;;;12.21;89.19
33506;BME280;19843;51.040;13.782;2023-11-19T11:58:35;99611.19;;;12.49;86.22
33506;BME280;19843;51.040;13.782;2023-11-19T12:01:05;99608.13;;;12.81;84.77
33506;BME280;19843;51.040;13.782;2023-11-19T12:03:33;99608.25;;;13.15;83.51
33506;BME280;19843;51.040;13.782;2023-11-19T12:06:01;99595.09;;;13.19;82.82
33506;BME280;19843;51.040;13.782;2023-11-19T12:08:30;99592.69;;;13.17;80.58
33506;BME280;19843;51.040;13.782;2023-11-19T12:10:58;99612.41;;;13.24;81.35
33506;BME280;19843;51.040;13.782;2023-11-19T12:13:43;99600.72;;;12.92;82.11
33506;BME280;19843;51.040;13.782;2023-11-19T12:16:14;99596.59;;;12.86;82.78
33506;BME280;19843;51.040;13.782;2023-11-19T12:18:42;99586.97;;;12.84;83.95
33506;BME280;19843;51.040;13.782;2023-11-19T12:21:10;99579.91;;;12.93;81.42
33506;BME280;19843;51.040;13.782;2023-11-19T12:23:45;99574.25;;;12.90;79.96
33506;BME280;19843;51.040;13.782;2023-11-19T12:26:30;99568.94;;;13.34;78.79
33506;BME280;19843;51.040;13.782;2023-11-19T12:28:58;99565.69;;;13.62;78.52
33506;BME280;19843;51.040;13.782;2023-11-19T12:31:27;99552.38;;;13.89;77.13
33506;BME280;19843;51.040;13.782;2023-11-19T12:33:55;99552.63;;;13.73;76.23
33506;BME280;19843;51.040;13.782;2023-11-19T12:36:23;99555.59;;;13.88;76.17
33506;BME280;19843;51.040;13.782;2023-11-19T12:38:51;99562.97;;;14.03;73.00
33506;BME280;19843;51.040;13.782;2023-11-19T12:41:18;99557.16;;;14.22;73.45
33506;BME280;19843;51.040;13.782;2023-11-19T12:43:49;99551.50;;;14.19;72.63
33506;BME280;19843;51.040;13.782;2023-11-19T12:46:19;99536.81;;;13.95;73.95
33506;BME280;19843;51.040;13.782;2023-11-19T12:48:49;99548.59;;;14.08;72.47
33506;BME280;19843;51.040;13.782;2023-11-19T12:51:17;99547.75;;;14.45;71.80
33506;BME280;19843;51.040;13.782;2023-11-19T12:53:50;99536.59;;;14.11;73.44
33506;BME280;19843;51.040;13.782;2023-11-19T12:56:21;99548.78;;;14.26;71.30
33506;BME280;19843;51.040;13.782;2023-11-19T12:58:49;99545.66;;;14.34;72.46
33506;BME280;19843;51.040;13.782;2023-11-19T13:01:18;99535.66;;;14.00;71.43